Time;durP1;ratioP1;P1;durP2;ratioP2;P2;SDS_P1;SDS_P2;PMS_P1;PMS_P2;Temp;Humidity;BMP_temperature;BMP_pressure;BME280_temperature;BME280_humidity;BME280_pressure;Samples;Min_cycle;Max_cycle;Signal;HPM_P1;HPM_P2
2022/01/03 00:02:01;;;;;;;49.20;30.07;;;;;;;6.97;100.00;100299.84;1463173;87;21626;-87
2022/01/03 00:04:34;;;;;;;47.37;31.03;;;;;;;6.97;100.00;100282.74;1447245;88;21892;-87
2022/01/03 00:07:14;;;;;;;45.30;29.13;;;;;;;6.96;100.00;100283.69;1461825;88;21508;-87
2022/01/03 00:09:40;;;;;;;50.33;30.87;;;;;;;6.96;100.00;100278.42;1449444;87;21493;-86
2022/01/03 00:12:39;;;;;;;47.13;31.40;;;;;;;6.98;100.00;100279.14;1465480;87;22320;-87
2022/01/03 00:15:21;;;;;;;54.07;32.27;;;;;;;6.91;100.00;100260.41;1468609;86;22411;-88
2022/01/03 00:17:48;;;;;;;49.83;30.93;;;;;;;6.94;100.00;100258.83;1451712;86;23196;-88
2022/01/03 00:20:18;;;;;;;49.90;34.03;;;;;;;6.91;100.00;100246.42;1458304;86;21698;-87
2022/01/03 00:23:16;;;;;;;49.57;31.60;;;;;;;6.91;100.00;100250.37;1464318;86;21463;-86
2022/01/03 00:32:44;;;;;;;54.93;35.60;;;;;;;6.87;100.00;100236.61;1460015;86;21405;-87
2022/01/03 00:35:24;;;;;;;47.03;30.73;;;;;;;6.87;100.00;100245.00;1428870;88;21643;-87
2022/01/03 00:37:51;;;;;;;53.97;35.27;;;;;;;6.82;100.00;100232.25;1447021;87;21991;-85
2022/01/03 00:40:21;;;;;;;60.37;36.37;;;;;;;6.82;100.00;100232.25;1477072;86;21976;-84
2022/01/03 00:43:07;;;;;;;59.77;33.87;;;;;;;6.85;100.00;100257.44;1471866;86;22022;-85
2022/01/03 00:45:58;;;;;;;50.90;31.17;;;;;;;6.80;100.00;100262.27;1462976;86;21402;-85
2022/01/03 00:48:28;;;;;;;60.95;35.78;;;;;;;6.77;100.00;100265.50;1377917;91;21474;-85
2022/01/03 00:51:04;;;;;;;62.90;38.10;;;;;;;6.77;100.00;100265.50;1393649;90;21423;-87
2022/01/03 00:53:33;;;;;;;55.67;35.93;;;;;;;6.78;100.00;100272.41;1397992;92;21572;-85
2022/01/03 00:56:30;;;;;;;59.90;34.23;;;;;;;6.78;100.00;100267.16;1423910;90;22433;-85
2022/01/03 00:59:16;;;;;;;56.57;35.80;;;;;;;6.76;100.00;100266.47;1400489;91;21428;-85
2022/01/03 01:02:04;;;;;;;58.20;34.33;;;;;;;6.74;100.00;100244.71;1387156;93;21631;-85
2022/01/03 01:04:32;;;;;;;57.87;36.37;;;;;;;6.74;100.00;100251.77;1370807;92;22933;-85
2022/01/03 01:07:06;;;;;;;56.60;36.70;;;;;;;6.69;100.00;100237.67;1408772;92;21414;-84
2022/01/03 01:09:34;;;;;;;55.90;35.13;;;;;;;6.69;100.00;100219.75;1401592;93;21644;-85
2022/01/03 01:15:14;;;;;;;56.13;34.20;;;;;;;6.61;100.00;100216.44;1387994;92;22001;-86
2022/01/03 01:17:42;;;;;;;60.27;36.70;;;;;;;6.59;100.00;100202.60;1369667;92;22076;-86
2022/01/03 01:20:16;;;;;;;57.73;37.90;;;;;;;6.58;100.00;100199.59;1377908;92;21517;-85
2022/01/03 01:23:09;;;;;;;44.65;28.30;;;;;;;6.53;100.00;100185.53;1355516;94;21540;-86
2022/01/03 01:28:17;;;;;;;57.05;36.53;;;;;;;6.51;100.00;100185.30;1342268;94;21659;-86
2022/01/03 01:31:21;;;;;;;58.97;35.20;;;;;;;6.49;100.00;100185.91;1346126;95;21794;-86
2022/01/03 01:34:03;;;;;;;51.03;30.60;;;;;;;6.44;100.00;100160.47;1343220;94;21579;-87
2022/01/03 01:36:30;;;;;;;52.03;33.23;;;;;;;6.46;100.00;100151.98;1365968;94;22743;-85
2022/01/03 01:39:08;;;;;;;59.17;35.77;;;;;;;6.43;100.00;100143.04;1377692;92;22074;-87
2022/01/03 01:41:58;;;;;;;48.17;31.17;;;;;;;6.41;100.00;100137.89;1380596;92;23820;-84
2022/01/03 01:44:25;;;;;;;61.23;35.17;;;;;;;6.40;100.00;100134.09;1383071;92;21422;-85
2022/01/03 01:47:04;;;;;;;52.83;32.67;;;;;;;6.32;100.00;100136.87;1393680;92;23725;-83
2022/01/03 01:49:52;;;;;;;46.27;27.67;;;;;;;6.32;100.00;100132.92;1385808;92;22257;-83
2022/01/03 01:52:25;;;;;;;60.10;37.17;;;;;;;6.25;100.00;100127.01;1368180;93;21776;-85
2022/01/03 01:54:59;;;;;;;57.57;35.40;;;;;;;6.28;100.00;100129.38;1386222;93;21482;-86
2022/01/03 01:58:21;;;;;;;55.43;34.73;;;;;;;6.22;100.00;100121.52;1398228;91;21417;-85
2022/01/03 02:07:43;;;;;;;56.80;35.57;;;;;;;6.26;100.00;100140.01;1387293;90;22372;-85
2022/01/03 02:10:49;;;;;;;54.37;33.17;;;;;;;6.26;100.00;100132.13;1402032;92;21570;-85
2022/01/03 02:13:29;;;;;;;63.87;35.93;;;;;;;6.22;100.00;100132.52;1397506;92;22342;-85
2022/01/03 02:16:04;;;;;;;56.45;31.60;;;;;;;6.16;100.00;100136.48;1366760;90;21528;-84
2022/01/03 02:21:28;;;;;;;51.53;30.97;;;;;;;6.05;100.00;100118.14;1394568;92;21671;-86
2022/01/03 02:24:10;;;;;;;59.97;35.33;;;;;;;6.02;100.00;100127.59;1388979;90;21997;-90
2022/01/03 02:26:48;;;;;;;54.93;34.07;;;;;;;5.95;100.00;100115.90;1412624;90;21442;-90
2022/01/03 02:29:22;;;;;;;56.77;36.30;;;;;;;5.99;100.00;100116.02;1407145;89;21461;-90
2022/01/03 02:32:29;;;;;;;50.57;31.33;;;;;;;6.00;100.00;100114.56;1402058;90;22264;-86
2022/01/03 02:34:57;;;;;;;55.90;31.57;;;;;;;6.04;100.00;100110.75;1399594;90;21768;-86
2022/01/03 02:37:24;;;;;;;58.07;35.97;;;;;;;6.03;100.00;100124.82;1395475;90;21616;-86
2022/01/03 02:39:52;;;;;;;63.70;39.33;;;;;;;5.99;100.00;100127.84;1399067;91;21564;-86
2022/01/03 02:42:25;;;;;;;60.40;34.73;;;;;;;5.97;100.00;100125.81;1383205;90;21571;-86
2022/01/03 02:45:37;;;;;;;49.73;29.77;;;;;;;5.93;100.00;100121.72;1410884;89;21426;-86
2022/01/03 02:48:26;;;;;;;60.03;36.60;;;;;;;5.91;100.00;100119.72;1374417;94;21627;-88
2022/01/03 02:51:05;;;;;;;59.60;36.10;;;;;;;5.86;100.00;100113.03;1387836;92;21756;-88
2022/01/03 02:53:38;;;;;;;59.83;39.03;;;;;;;5.84;100.00;100097.90;1400250;89;21389;-87
2022/01/03 02:56:10;;;;;;;65.97;38.93;;;;;;;5.83;100.00;100104.57;1396678;91;22763;-83
2022/01/03 02:58:39;;;;;;;51.33;32.53;;;;;;;5.81;100.00;100099.46;1404863;89;21467;-84
2022/01/03 03:01:13;;;;;;;44.63;28.83;;;;;;;5.75;100.00;100081.55;1405197;91;21505;-85
2022/01/03 03:03:39;;;;;;;53.73;33.33;;;;;;;5.68;100.00;100094.84;1379582;91;21497;-86
2022/01/03 03:06:20;;;;;;;49.27;30.73;;;;;;;5.64;100.00;100078.51;1382562;92;22417;-85
2022/01/03 03:08:49;;;;;;;49.97;33.30;;;;;;;5.61;100.00;100085.77;1367615;92;22292;-88
2022/01/03 03:11:15;;;;;;;50.70;31.20;;;;;;;5.59;100.00;100103.47;1387291;92;22393;-87
2022/01/03 03:13:45;;;;;;;44.33;27.07;;;;;;;5.60;100.00;100102.50;1391131;91;21405;-86
2022/01/03 03:16:11;;;;;;;43.97;28.90;;;;;;;5.58;100.00;100100.46;1368227;92;21501;-81
2022/01/03 03:18:37;;;;;;;47.37;30.07;;;;;;;5.57;100.00;100097.49;1385274;92;21999;-87
2022/01/03 03:21:19;;;;;;;42.17;25.93;;;;;;;5.57;100.00;100084.37;1395623;91;22299;-88
2022/01/03 03:23:47;;;;;;;41.53;27.77;;;;;;;5.56;100.00;100089.27;1391383;92;23633;-89
2022/01/03 03:26:38;;;;;;;39.77;24.13;;;;;;;5.54;100.00;100073.63;1380817;91;21541;-88
2022/01/03 03:29:07;;;;;;;41.73;25.10;;;;;;;5.47;100.00;100062.42;1401304;90;21987;-89
2022/01/03 03:31:41;;;;;;;41.17;28.50;;;;;;;5.38;100.00;100054.36;1373750;91;21434;-90
2022/01/03 03:34:37;;;;;;;40.50;25.70;;;;;;;5.34;100.00;100045.05;1373417;92;21463;-88
2022/01/03 03:37:06;;;;;;;38.27;25.57;;;;;;;5.30;100.00;100029.70;1416296;90;21487;-87
2022/01/03 03:39:33;;;;;;;34.53;22.30;;;;;;;5.28;100.00;100040.78;1405449;91;21391;-87
2022/01/03 03:42:19;;;;;;;37.47;25.10;;;;;;;5.27;100.00;100038.64;1413341;89;23296;-87
2022/01/03 03:44:51;;;;;;;38.77;26.00;;;;;;;5.18;100.00;100023.64;1415231;91;21508;-87
2022/01/03 03:47:32;;;;;;;35.83;24.20;;;;;;;5.19;100.00;100027.92;1404934;89;21467;-89
2022/01/03 03:56:16;;;;;;;42.63;26.03;;;;;;;5.12;100.00;100025.42;1383504;91;21886;-86
2022/01/03 03:58:42;;;;;;;36.83;23.73;;;;;;;5.10;100.00;100020.80;1381111;93;23234;-88
2022/01/03 04:01:08;;;;;;;36.63;24.93;;;;;;;5.08;100.00;100016.97;1369784;93;21504;-87
2022/01/03 04:04:44;;;;;;;;;;;;;;;;;;;;;
2022/01/03 04:07:08;;;;;;;27.17;17.37;;;;;;;5.04;100.00;100005.55;1391928;90;22473;-88
2022/01/03 04:09:38;;;;;;;42.10;26.87;;;;;;;5.00;100.00;100001.48;1402726;90;23054;-88
2022/01/03 04:12:05;;;;;;;41.17;27.90;;;;;;;5.03;100.00;100018.29;1404165;89;21660;-90
2022/01/03 04:14:31;;;;;;;41.23;26.27;;;;;;;5.03;100.00;100011.73;1407849;89;24419;-89
2022/01/03 04:16:58;;;;;;;40.13;27.23;;;;;;;5.03;100.00;100013.87;1407328;91;21439;-89
2022/01/03 04:19:33;;;;;;;42.10;23.47;;;;;;;5.05;100.00;100004.58;1386951;92;23251;-87
2022/01/03 04:22:17;;;;;;;38.67;24.37;;;;;;;5.03;100.00;99998.62;1405222;89;22179;-87
2022/01/03 04:24:54;;;;;;;41.23;26.17;;;;;;;5.05;100.00;100008.03;1409924;91;21552;-86
2022/01/03 04:27:28;;;;;;;41.93;26.03;;;;;;;5.10;100.00;99998.50;1421506;90;21375;-87
2022/01/03 04:33:28;;;;;;;41.57;25.97;;;;;;;5.11;100.00;99997.53;1409574;89;21478;-88
2022/01/03 04:36:04;;;;;;;41.43;26.17;;;;;;;5.06;100.00;99985.25;1413008;89;22141;-88
2022/01/03 04:38:44;;;;;;;33.80;20.17;;;;;;;5.10;100.00;99988.00;1407943;90;21612;-85
2022/01/03 04:41:24;;;;;;;32.77;23.03;;;;;;;5.11;100.00;100004.09;1400483;89;21673;-86
2022/01/03 04:44:00;;;;;;;39.10;23.62;;;;;;;5.13;100.00;100017.92;1405649;91;21429;-87
2022/01/03 04:46:27;;;;;;;38.10;25.97;;;;;;;5.11;100.00;100019.83;1399402;91;21521;-88
2022/01/03 04:48:54;;;;;;;39.97;23.77;;;;;;;5.12;100.00;100021.48;1398846;92;21541;-89
2022/01/03 04:51:26;;;;;;;37.57;24.53;;;;;;;5.09;100.00;100019.11;1382142;92;21630;-89
2022/01/03 04:53:53;;;;;;;35.83;23.97;;;;;;;5.10;100.00;100018.17;1395798;91;21424;-84
2022/01/03 04:56:19;;;;;;;34.67;22.43;;;;;;;5.12;100.00;100017.09;1398463;91;21690;-85
2022/01/03 04:58:45;;;;;;;32.13;22.03;;;;;;;5.13;100.00;100013.51;1380773;94;21559;-84
2022/01/03 05:01:12;;;;;;;33.03;22.60;;;;;;;5.14;100.00;100020.41;1390295;94;21448;-85
2022/01/03 05:03:38;;;;;;;38.60;25.07;;;;;;;5.14;100.00;100014.34;1407029;92;21545;-85
2022/01/03 05:06:05;;;;;;;35.97;22.30;;;;;;;5.12;100.00;100012.30;1410643;92;21528;-85
2022/01/03 05:08:32;;;;;;;30.53;20.97;;;;;;;5.10;100.00;100018.17;1414338;92;21409;-85
2022/01/03 05:11:02;;;;;;;29.50;20.53;;;;;;;5.08;100.00;100006.48;1410640;92;21459;-85
2022/01/03 05:13:32;;;;;;;28.37;19.40;;;;;;;5.05;100.00;100000.16;1398339;94;21446;-86
2022/01/03 05:16:01;;;;;;;30.07;20.93;;;;;;;5.06;100.00;99995.75;1397827;94;21439;-85
2022/01/03 05:18:28;;;;;;;33.20;21.40;;;;;;;5.06;100.00;100002.30;1382703;93;22463;-83
2022/01/03 05:20:54;;;;;;;31.43;22.17;;;;;;;5.06;100.00;99996.58;1409279;92;22502;-85
2022/01/03 05:23:21;;;;;;;31.77;19.67;;;;;;;5.03;100.00;99986.81;1410871;92;21904;-85
2022/01/03 05:25:48;;;;;;;36.77;24.50;;;;;;;5.00;100.00;99983.95;1401517;92;21479;-84
2022/01/03 05:28:14;;;;;;;26.13;18.33;;;;;;;4.98;100.00;99984.09;1397149;92;21439;-85
2022/01/03 05:30:41;;;;;;;29.53;21.67;;;;;;;4.97;100.00;99988.97;1385543;92;21396;-85
2022/01/03 05:33:07;;;;;;;28.03;21.43;;;;;;;4.95;100.00;99989.59;1390877;92;21469;-85
2022/01/03 05:35:34;;;;;;;27.77;20.70;;;;;;;4.97;100.00;99981.58;1407496;92;22441;-85
2022/01/03 05:38:00;;;;;;;30.20;21.20;;;;;;;4.96;100.00;99991.24;1377980;93;21656;-89
2022/01/03 05:40:27;;;;;;;39.03;25.00;;;;;;;4.98;100.00;99984.58;1392412;92;21945;-89
2022/01/03 05:42:53;;;;;;;36.50;25.30;;;;;;;4.95;100.00;99975.16;1402523;92;21494;-89
2022/01/03 05:45:20;;;;;;;32.90;23.63;;;;;;;4.92;100.00;99981.97;1388257;94;22385;-89
2022/01/03 05:47:47;;;;;;;31.03;21.93;;;;;;;4.91;100.00;99969.79;1369198;94;21411;-89
2022/01/03 05:50:15;;;;;;;35.57;24.07;;;;;;;4.89;100.00;99986.59;1388317;93;22459;-90
2022/01/03 05:52:42;;;;;;;33.30;23.87;;;;;;;4.88;100.00;99984.45;1385289;94;21338;-90
2022/01/03 05:55:09;;;;;;;36.73;24.43;;;;;;;4.86;100.00;99975.91;1383601;94;21831;-90
2022/01/03 05:57:36;;;;;;;35.80;23.97;;;;;;;4.90;100.00;99978.63;1368325;94;23152;-91
2022/01/03 06:00:06;;;;;;;33.70;23.90;;;;;;;4.90;100.00;99981.73;1363968;93;22585;-90
2022/01/03 06:02:37;;;;;;;36.55;22.82;;;;;;;4.85;100.00;99978.15;1404659;92;21623;-89
2022/01/03 06:05:02;;;;;;;32.20;21.97;;;;;;;4.86;100.00;99977.66;1390445;93;21517;-90
2022/01/03 06:07:28;;;;;;;33.27;23.93;;;;;;;4.88;100.00;99984.94;1388318;92;21409;-88
2022/01/03 06:09:54;;;;;;;41.33;26.33;;;;;;;4.91;100.00;99999.12;1395623;93;21658;-88
2022/01/03 06:12:21;;;;;;;35.13;21.77;;;;;;;4.91;100.00;100001.26;1429149;91;21980;-88
2022/01/03 06:14:48;;;;;;;38.77;24.67;;;;;;;4.93;100.00;99996.73;1414207;89;21445;-87
2022/01/03 06:17:16;;;;;;;36.00;23.33;;;;;;;4.97;100.00;100011.25;1405196;90;21416;-85
2022/01/03 06:19:43;;;;;;;36.33;25.73;;;;;;;4.95;100.00;100010.56;1410383;91;21513;-84
2022/01/03 06:22:11;;;;;;;43.00;28.97;;;;;;;4.92;100.00;100015.20;1407081;91;22347;-88
2022/01/03 06:24:40;;;;;;;94.27;54.87;;;;;;;4.89;100.00;100011.06;1416654;91;21447;-88
2022/01/03 06:27:07;;;;;;;58.93;35.97;;;;;;;4.86;100.00;100006.52;1417030;91;21555;-89
2022/01/03 06:29:33;;;;;;;88.67;46.63;;;;;;;4.86;100.00;100025.72;1427976;91;21438;-88
2022/01/03 06:31:59;;;;;;;83.50;42.90;;;;;;;4.85;100.00;100026.66;1426358;91;23482;-89
2022/01/03 06:34:26;;;;;;;46.40;30.77;;;;;;;4.84;100.00;100025.00;1428235;91;21435;-89
2022/01/03 06:36:53;;;;;;;47.80;32.03;;;;;;;4.83;100.00;100019.38;1417487;91;21409;-88
2022/01/03 06:39:19;;;;;;;53.67;34.80;;;;;;;4.83;100.00;100021.17;1406251;90;22186;-85
2022/01/03 06:41:45;;;;;;;45.30;32.40;;;;;;;4.81;100.00;100018.69;1406773;91;21395;-85
2022/01/03 06:44:12;;;;;;;44.80;27.83;;;;;;;4.83;100.00;100027.25;1421876;91;21324;-84
2022/01/03 06:46:38;;;;;;;43.93;29.27;;;;;;;4.84;100.00;100032.04;1433102;91;22321;-85
2022/01/03 06:49:06;;;;;;;43.00;28.67;;;;;;;4.85;100.00;100027.97;1418875;91;21581;-86
2022/01/03 06:51:36;;;;;;;43.50;27.83;;;;;;;4.89;100.00;100031.17;1416870;91;21461;-84
2022/01/03 06:54:06;;;;;;;38.10;26.17;;;;;;;4.90;100.00;100025.83;1411786;91;22388;-87
2022/01/03 06:56:34;;;;;;;40.57;26.70;;;;;;;4.90;100.00;100032.86;1418428;90;22407;-87
2022/01/03 06:59:00;;;;;;;37.10;25.60;;;;;;;4.89;100.00;100041.22;1428945;89;22541;-87
2022/01/03 07:01:27;;;;;;;36.33;22.97;;;;;;;4.88;100.00;100047.88;1430250;90;21443;-88
2022/01/03 07:03:53;;;;;;;33.90;23.57;;;;;;;4.86;100.00;100032.28;1438813;90;21619;-89
2022/01/03 07:06:19;;;;;;;32.67;22.90;;;;;;;4.85;100.00;100035.01;1426564;91;22489;-88
2022/01/03 07:08:45;;;;;;;32.50;22.47;;;;;;;4.84;100.00;100038.59;1416028;91;22604;-85
2022/01/03 07:11:12;;;;;;;36.87;25.47;;;;;;;4.85;100.00;100025.34;1428776;90;21446;-86
2022/01/03 07:13:47;;;;;;;34.00;22.47;;;;;;;4.84;100.00;100023.69;1408048;91;21432;-86
2022/01/03 07:18:57;;;;;;;28.47;20.60;;;;;;;4.82;100.00;100012.48;1414674;90;22467;-85
2022/01/03 07:21:30;;;;;;;27.83;19.07;;;;;;;4.80;100.00;100006.52;1387461;91;22517;-84
2022/01/03 07:23:58;;;;;;;30.77;20.93;;;;;;;4.84;100.00;100011.06;1430569;90;21429;-84
2022/01/03 07:26:27;;;;;;;33.93;20.87;;;;;;;4.87;100.00;100005.58;1420446;90;21465;-84
2022/01/03 07:28:54;;;;;;;30.20;19.80;;;;;;;4.88;100.00;100002.81;1427606;91;21504;-85
2022/01/03 07:31:20;;;;;;;28.07;20.20;;;;;;;4.91;100.00;99996.50;1431635;89;22703;-84
2022/01/03 07:33:47;;;;;;;30.67;19.87;;;;;;;4.93;100.00;99995.42;1425069;90;21531;-83
2022/01/03 07:36:15;;;;;;;34.93;19.90;;;;;;;4.97;100.00;99992.07;1417623;90;21569;-82
2022/01/03 07:38:46;;;;;;;26.87;18.93;;;;;;;5.00;100.00;99981.33;1437762;90;21424;-86
2022/01/03 07:41:09;;;;;;;27.40;20.10;;;;;;;5.05;100.00;99980.50;1426914;90;21608;-82
2022/01/03 07:43:35;;;;;;;31.60;20.73;;;;;;;5.10;100.00;99969.64;1429888;90;21482;-88
2022/01/03 07:46:01;;;;;;;38.47;25.33;;;;;;;5.10;100.00;99974.41;1425948;89;22374;-86
2022/01/03 07:48:27;;;;;;;34.77;23.00;;;;;;;5.12;100.00;99980.38;1430706;90;22019;-84
2022/01/03 07:50:53;;;;;;;34.00;21.17;;;;;;;5.13;100.00;99987.76;1431244;90;21469;-85
2022/01/03 07:53:20;;;;;;;32.10;20.77;;;;;;;5.16;100.00;99994.07;1413776;89;21468;-88
2022/01/03 07:55:46;;;;;;;28.97;18.67;;;;;;;5.19;100.00;100007.77;1417244;90;21446;-87
2022/01/03 07:58:15;;;;;;;28.53;18.30;;;;;;;5.24;100.00;100004.78;1410287;90;21506;-85
2022/01/03 08:00:40;;;;;;;26.63;18.93;;;;;;;5.28;100.00;99981.75;1410283;90;22470;-85
2022/01/03 08:03:06;;;;;;;25.47;16.90;;;;;;;5.30;100.00;99980.67;1443352;90;21628;-83
2022/01/03 08:05:32;;;;;;;23.67;16.30;;;;;;;5.36;100.00;99985.90;1438729;90;21571;-86
2022/01/03 08:07:58;;;;;;;26.47;16.90;;;;;;;5.43;100.00;99979.17;1415667;90;21460;-85
2022/01/03 08:10:25;;;;;;;20.60;14.40;;;;;;;5.50;100.00;99972.97;1425278;90;21573;-88
2022/01/03 08:12:51;;;;;;;21.47;14.80;;;;;;;5.55;100.00;99966.83;1438987;90;21517;-86
2022/01/03 08:15:17;;;;;;;24.73;16.90;;;;;;;5.62;100.00;99967.52;1395380;91;21537;-85
2022/01/03 08:17:46;;;;;;;23.77;15.97;;;;;;;5.68;100.00;99974.06;1403848;91;21603;-85
2022/01/03 08:20:12;;;;;;;22.93;15.57;;;;;;;5.77;100.00;99983.80;1426235;90;22398;-85
2022/01/03 08:22:39;;;;;;;22.47;14.77;;;;;;;5.86;100.00;99968.58;1423111;89;21475;-84
2022/01/03 08:25:06;;;;;;;21.43;13.70;;;;;;;5.96;100.00;99974.42;1420414;91;21501;-85
2022/01/03 08:27:32;;;;;;;23.17;16.37;;;;;;;6.07;99.80;99968.61;1414079;91;21512;-84
2022/01/03 08:29:59;;;;;;;21.27;14.53;;;;;;;6.21;99.81;99960.84;1415292;91;21495;-85
2022/01/03 08:32:25;;;;;;;19.00;13.37;;;;;;;6.28;97.55;99967.27;1408737;91;21525;-84
2022/01/03 08:34:51;;;;;;;25.27;14.57;;;;;;;6.40;98.31;99970.63;1420232;91;21458;-86
2022/01/03 08:37:17;;;;;;;21.73;14.40;;;;;;;6.49;97.06;99961.12;1396639;92;21488;-84
2022/01/03 08:39:44;;;;;;;22.43;13.37;;;;;;;6.58;97.50;99944.53;1422225;91;21531;-85
2022/01/03 08:42:13;;;;;;;18.23;12.50;;;;;;;6.62;96.53;99929.31;1409379;91;21616;-84
2022/01/03 08:45:03;;;;;;;19.97;11.00;;;;;;;6.65;96.03;99941.73;1412284;91;21597;-84
2022/01/03 08:47:30;;;;;;;20.05;12.53;;;;;;;6.72;95.65;99936.77;1406562;91;21449;-85
2022/01/03 08:51:06;;;;;;;16.57;11.93;;;;;;;6.77;94.96;99945.91;1431739;89;21683;-84
2022/01/03 08:54:25;;;;;;;21.07;12.30;;;;;;;6.78;94.77;99943.62;1393192;90;21380;-84
2022/01/03 09:03:20;;;;;;;21.20;12.23;;;;;;;6.93;93.83;99954.62;1434726;90;21383;-84
2022/01/03 09:05:49;;;;;;;19.87;13.58;;;;;;;6.94;93.10;99944.92;1412185;91;21409;-85
2022/01/03 09:15:48;;;;;;;19.77;13.07;;;;;;;6.99;92.15;99940.91;1393105;90;22353;-85
2022/01/03 09:18:19;;;;;;;18.03;11.90;;;;;;;7.00;90.83;99933.84;1374420;89;21287;-86
2022/01/03 09:20:57;;;;;;;;;;;;;;;;;;;;;
2022/01/03 09:23:38;;;;;;;20.77;10.57;;;;;;;7.03;89.92;99919.09;1385883;90;21287;-85
2022/01/03 09:29:12;;;;;;;16.43;10.33;;;;;;;7.08;89.82;99920.84;1407397;89;22256;-84
2022/01/03 09:31:56;;;;;;;19.12;12.68;;;;;;;7.09;89.93;99911.97;1403786;89;21386;-85
2022/01/03 09:34:23;;;;;;;17.67;10.50;;;;;;;7.09;88.78;99911.97;1421708;90;22364;-83
2022/01/03 09:36:49;;;;;;;12.80;9.57;;;;;;;7.08;89.06;99915.58;1428576;90;21439;-85
2022/01/03 09:39:15;;;;;;;21.50;10.27;;;;;;;7.09;89.19;99910.66;1433961;91;21447;-84
2022/01/03 09:42:04;;;;;;;18.37;11.97;;;;;;;7.10;89.05;99895.20;1432153;91;22385;-83
2022/01/03 09:44:34;;;;;;;17.33;11.67;;;;;;;7.09;88.83;99896.18;1411532;90;21578;-83
2022/01/03 09:47:08;;;;;;;15.88;10.68;;;;;;;7.06;88.37;99903.52;1438538;91;21504;-84
2022/01/03 09:49:37;;;;;;;14.70;10.30;;;;;;;7.03;87.48;99891.47;1429684;91;21601;-85
2022/01/03 09:52:06;;;;;;;17.90;10.73;;;;;;;7.01;88.02;99890.28;1431722;91;22327;-85
2022/01/03 09:54:33;;;;;;;16.67;11.57;;;;;;;7.00;88.03;99899.64;1433567;90;21453;-84
2022/01/03 09:57:02;;;;;;;17.43;12.00;;;;;;;6.97;87.56;99888.08;1429106;91;21498;-85
2022/01/03 09:59:30;;;;;;;16.20;10.83;;;;;;;6.96;87.81;99899.09;1449667;90;21513;-85
2022/01/03 10:01:56;;;;;;;17.97;11.10;;;;;;;6.95;87.04;99884.26;1408844;91;21458;-86
2022/01/03 10:04:23;;;;;;;17.40;11.63;;;;;;;6.98;87.48;99888.41;1423281;89;21374;-85
2022/01/03 10:06:50;;;;;;;20.10;13.80;;;;;;;6.97;88.19;99877.56;1426297;89;21353;-88
2022/01/03 10:09:19;;;;;;;17.43;11.17;;;;;;;6.95;87.00;99852.69;1393577;90;21384;-86
2022/01/03 10:11:46;;;;;;;18.43;11.33;;;;;;;6.96;88.07;99852.20;1376780;91;22395;-85
2022/01/03 10:14:21;;;;;;;16.47;10.57;;;;;;;6.98;88.05;99862.11;1399105;91;21717;-85
2022/01/03 10:16:49;;;;;;;17.87;11.60;;;;;;;7.01;87.72;99865.77;1429896;91;21504;-87
2022/01/03 10:19:16;;;;;;;18.23;11.67;;;;;;;7.01;88.03;99859.20;1396982;91;21564;-89
2022/01/03 10:21:48;;;;;;;19.67;12.13;;;;;;;7.03;88.32;99848.55;1398486;91;21342;-90
2022/01/03 10:24:17;;;;;;;19.37;11.20;;;;;;;7.03;87.09;99837.53;1381186;91;21306;-89
2022/01/03 10:26:53;;;;;;;16.07;11.53;;;;;;;7.08;88.18;99847.16;1393287;91;21577;-89
2022/01/03 10:29:22;;;;;;;17.23;10.90;;;;;;;7.08;87.84;99838.41;1401793;91;22475;-88
2022/01/03 10:31:55;;;;;;;17.87;11.23;;;;;;;7.07;87.84;99834.95;1422670;90;22366;-89
2022/01/03 10:34:24;;;;;;;17.40;10.53;;;;;;;7.07;86.49;99836.27;1412646;91;21497;-90
2022/01/03 10:36:52;;;;;;;16.10;11.70;;;;;;;7.08;86.12;99858.14;1419147;91;22813;-87
2022/01/03 10:39:28;;;;;;;17.03;10.63;;;;;;;7.11;87.13;99860.04;1396553;92;21438;-89
2022/01/03 10:42:18;;;;;;;18.50;10.93;;;;;;;7.10;86.47;99866.25;1409261;91;21514;-89
2022/01/03 10:44:45;;;;;;;15.53;10.17;;;;;;;7.12;87.01;99864.81;1415361;90;22514;-89
2022/01/03 10:47:15;;;;;;;15.97;10.47;;;;;;;7.12;86.68;99868.27;1403626;90;21501;-88
2022/01/03 10:49:44;;;;;;;19.50;10.37;;;;;;;7.13;86.56;99858.08;1413417;91;21429;-87
2022/01/03 10:52:22;;;;;;;17.37;10.57;;;;;;;7.12;86.05;99862.18;1358017;91;22339;-88
2022/01/03 10:55:12;;;;;;;16.97;10.63;;;;;;;7.16;86.66;99849.94;1407676;91;21568;-88
2022/01/03 10:57:58;;;;;;;16.03;10.80;;;;;;;7.17;86.67;99851.58;1413918;91;21400;-87
2022/01/03 11:00:38;;;;;;;18.03;12.47;;;;;;;7.21;86.83;99850.32;1404472;91;21488;-89
2022/01/03 11:03:28;;;;;;;18.20;12.03;;;;;;;7.24;87.29;99836.05;1416522;90;21575;-90
2022/01/03 11:06:07;;;;;;;23.43;14.70;;;;;;;7.26;86.94;99835.92;1424678;90;21472;-90
2022/01/03 11:11:16;;;;;;;20.27;11.30;;;;;;;7.26;87.69;99812.23;1368135;90;21342;-89
2022/01/03 11:13:48;;;;;;;21.20;11.97;;;;;;;7.27;87.94;99805.50;1363782;90;21407;-87
2022/01/03 11:16:13;;;;;;;;;;;;;;;7.29;87.74;99816.73;1363304;90;22836;-88
2022/01/03 11:18:48;;;;;;;17.13;11.47;;;;;;;7.30;87.69;99818.87;1416969;90;20288;-87
2022/01/03 11:21:22;;;;;;;16.87;10.87;;;;;;;7.31;88.14;99823.15;1422389;90;21494;-91
2022/01/03 11:24:11;;;;;;;19.50;11.30;;;;;;;7.33;88.58;99817.27;1419874;90;21495;-90
2022/01/03 11:26:46;;;;;;;15.27;10.30;;;;;;;7.37;89.01;99803.69;1403587;89;21516;-89
2022/01/03 11:29:09;;;;;;;15.10;9.77;;;;;;;7.44;89.12;99787.66;1362364;89;21527;-88
2022/01/03 11:31:39;;;;;;;16.90;10.37;;;;;;;7.50;88.91;99790.20;1367419;89;21319;-89
2022/01/03 11:34:08;;;;;;;19.67;10.93;;;;;;;7.55;88.86;99785.84;1422767;90;21481;-87
2022/01/03 11:36:37;;;;;;;15.20;9.23;;;;;;;7.56;88.55;99797.52;1369177;91;22557;-87
2022/01/03 11:39:12;;;;;;;18.23;11.97;;;;;;;7.60;88.08;99797.59;1421184;90;21449;-88
2022/01/03 11:41:42;;;;;;;19.37;11.27;;;;;;;7.63;87.71;99797.31;1410973;89;22375;-87
2022/01/03 11:44:11;;;;;;;19.20;10.80;;;;;;;7.68;88.30;99797.71;1421189;90;21509;-87
2022/01/03 11:46:37;;;;;;;19.13;11.87;;;;;;;7.75;88.45;99799.77;1419336;89;21641;-87
2022/01/03 11:49:03;;;;;;;19.57;11.77;;;;;;;7.84;88.51;99801.52;1363967;90;21469;-87
2022/01/03 11:51:33;;;;;;;37.93;21.93;;;;;;;7.92;88.88;99797.68;1360605;89;21296;-89
2022/01/03 11:54:01;;;;;;;30.20;18.83;;;;;;;7.98;87.95;99803.68;1384261;90;21421;-89
2022/01/03 11:56:29;;;;;;;26.37;17.37;;;;;;;8.05;88.55;99814.45;1421088;90;22669;-88
2022/01/03 12:04:41;;;;;;;17.83;10.87;;;;;;;8.16;88.39;99794.98;1356913;90;21349;-88
2022/01/03 12:07:13;;;;;;;26.53;12.83;;;;;;;8.22;88.51;99795.22;1368358;90;21347;-87
2022/01/03 12:09:43;;;;;;;21.67;13.53;;;;;;;8.32;88.92;99799.95;1374482;90;21325;-90
2022/01/03 12:12:32;;;;;;;22.10;14.78;;;;;;;8.36;87.26;99796.53;1383497;89;22754;-90
2022/01/03 12:15:01;;;;;;;24.47;14.27;;;;;;;8.42;88.16;99798.59;1379457;90;21414;-89
2022/01/03 12:17:43;;;;;;;22.00;14.80;;;;;;;8.44;86.77;99808.52;1379034;90;21476;-90
2022/01/03 12:20:10;;;;;;;24.07;14.43;;;;;;;8.51;87.61;99810.06;1320043;93;21346;-88
2022/01/03 12:22:55;;;;;;;24.50;11.97;;;;;;;8.57;87.68;99808.14;1358061;91;21335;-88
2022/01/03 12:25:31;;;;;;;21.70;11.80;;;;;;;8.64;87.47;99799.16;1353106;92;21542;-89
2022/01/03 12:28:00;;;;;;;31.20;13.13;;;;;;;8.78;87.66;99797.31;1333673;93;22338;-88
2022/01/03 12:30:33;;;;;;;18.13;10.57;;;;;;;9.28;88.48;99790.10;1397955;90;22382;-90
2022/01/03 12:33:11;;;;;;;21.13;11.50;;;;;;;9.85;87.05;99797.03;1410002;90;21485;-89
2022/01/03 12:35:40;;;;;;;17.30;11.20;;;;;;;10.37;84.88;99790.30;1411769;91;21471;-89
2022/01/03 12:38:12;;;;;;;15.63;10.17;;;;;;;10.96;82.20;99792.02;1391138;93;22231;-91
2022/01/03 12:40:52;;;;;;;14.13;8.17;;;;;;;11.50;80.30;99789.66;1402674;93;21459;-89
2022/01/03 12:43:39;;;;;;;12.57;9.23;;;;;;;11.92;76.62;99781.95;1394447;93;21474;-93
2022/01/03 12:46:19;;;;;;;16.73;7.63;;;;;;;12.26;75.27;99783.45;1385640;94;21540;-94